Time;durP1;ratioP1;P1;durP2;ratioP2;P2;SDS_P1;SDS_P2;PMS_P1;PMS_P2;Temp;Humidity;BMP_temperature;BMP_pressure;BME280_temperature;BME280_humidity;BME280_pressure;Samples;Min_cycle;Max_cycle;Signal;HPM_P1;HPM_P2
2021/05/08 00:00:14;;;;;;;8.57;6.80;;;6.50;94.30;;;;;;5086834;28;20443;-38
2021/05/08 00:02:40;;;;;;;9.50;7.13;;;6.50;94.40;;;;;;5097154;28;20115;-36
2021/05/08 00:05:06;;;;;;;10.98;7.85;;;6.50;94.40;;;;;;5086168;28;20095;-39
2021/05/08 00:07:32;;;;;;;8.65;7.00;;;6.40;94.40;;;;;;5098012;28;20038;-37
2021/05/08 00:09:57;;;;;;;11.00;7.45;;;6.40;94.50;;;;;;5085707;28;20020;-37
2021/05/08 00:12:23;;;;;;;8.55;7.65;;;6.40;94.60;;;;;;5098263;28;20027;-37
2021/05/08 00:14:51;;;;;;;9.23;7.40;;;6.40;94.70;;;;;;5086014;28;20115;-35
2021/05/08 00:17:17;;;;;;;7.95;6.75;;;6.30;94.70;;;;;;5097442;28;20045;-37
2021/05/08 00:19:42;;;;;;;8.15;7.10;;;6.30;94.70;;;;;;5086356;28;20469;-34
2021/05/08 00:22:08;;;;;;;8.32;7.13;;;6.20;94.70;;;;;;5093917;28;20130;-37
2021/05/08 00:24:33;;;;;;;11.02;7.20;;;6.20;94.80;;;;;;5089187;28;20110;-38
2021/05/08 00:26:59;;;;;;;8.45;7.47;;;6.10;94.90;;;;;;5091564;28;20053;-38
2021/05/08 00:29:24;;;;;;;9.27;7.47;;;6.10;94.90;;;;;;5091681;28;20305;-39
2021/05/08 00:31:50;;;;;;;8.65;6.72;;;6.10;95.00;;;;;;5088860;28;20070;-37
2021/05/08 00:34:15;;;;;;;8.63;7.55;;;6.10;95.00;;;;;;5089014;28;20471;-39
2021/05/08 00:36:41;;;;;;;9.55;7.55;;;6.10;95.00;;;;;;5086236;28;20028;-38
2021/05/08 00:39:07;;;;;;;11.07;8.25;;;6.10;95.00;;;;;;5096814;28;20583;-37
2021/05/08 00:41:32;;;;;;;8.55;7.10;;;6.10;95.00;;;;;;5086460;28;20028;-36
2021/05/08 00:43:59;;;;;;;9.20;7.10;;;6.10;95.10;;;;;;5095926;28;20738;-38
2021/05/08 00:46:25;;;;;;;8.52;7.45;;;6.10;95.10;;;;;;5085789;28;20024;-37
2021/05/08 00:48:56;;;;;;;8.68;7.60;;;6.00;95.20;;;;;;5097481;28;20043;-36
2021/05/08 00:51:22;;;;;;;10.30;7.60;;;6.00;95.30;;;;;;5085146;28;20028;-37
2021/05/08 00:53:47;;;;;;;9.55;7.65;;;6.00;95.30;;;;;;5097646;28;20411;-37
2021/05/08 00:56:13;;;;;;;10.48;8.02;;;6.00;95.40;;;;;;5084562;28;20028;-36
2021/05/08 00:58:42;;;;;;;10.10;8.25;;;6.00;95.50;;;;;;5096922;28;20070;-37
2021/05/08 01:01:08;;;;;;;10.68;7.85;;;6.00;95.50;;;;;;5085740;28;20016;-38
2021/05/08 01:03:33;;;;;;;9.65;7.95;;;5.90;95.50;;;;;;5094123;28;20362;-35
2021/05/08 01:05:59;;;;;;;10.15;7.75;;;6.00;95.60;;;;;;5087797;28;20058;-35
2021/05/08 01:08:25;;;;;;;11.13;8.07;;;5.90;95.90;;;;;;5091383;28;20036;-33
2021/05/08 01:10:51;;;;;;;10.40;7.68;;;5.90;95.60;;;;;;5089978;28;20028;-39
2021/05/08 01:13:17;;;;;;;9.02;7.20;;;5.80;95.60;;;;;;5089165;28;20055;-32
2021/05/08 01:15:42;;;;;;;9.55;7.30;;;5.90;95.70;;;;;;5093009;28;20408;-35
2021/05/08 01:18:08;;;;;;;9.95;7.55;;;5.80;95.80;;;;;;5085735;28;20331;-38
2021/05/08 01:20:34;;;;;;;9.60;7.47;;;5.80;95.90;;;;;;5095952;28;20043;-39
2021/05/08 01:22:59;;;;;;;11.15;7.97;;;5.80;95.80;;;;;;5086112;28;20394;-38
2021/05/08 01:25:27;;;;;;;10.18;7.97;;;5.70;95.80;;;;;;5095665;28;20619;-38
2021/05/08 01:27:55;;;;;;;9.48;8.23;;;5.70;95.90;;;;;;5084512;28;20085;-38
2021/05/08 01:30:24;;;;;;;11.15;8.60;;;5.70;96.00;;;;;;5096947;28;20032;-36
2021/05/08 01:32:50;;;;;;;12.20;8.40;;;5.70;96.00;;;;;;5087852;28;20111;-37
2021/05/08 01:35:16;;;;;;;12.38;8.77;;;5.60;96.10;;;;;;5094718;28;20032;-36
2021/05/08 01:37:43;;;;;;;9.55;8.10;;;5.70;96.20;;;;;;5108103;28;20512;-38
2021/05/08 01:40:12;;;;;;;11.80;8.63;;;5.60;96.20;;;;;;5095916;28;20039;-39
2021/05/08 01:42:43;;;;;;;9.18;8.07;;;5.60;96.30;;;;;;5088971;28;20043;-36
2021/05/08 01:45:17;;;;;;;10.27;8.15;;;5.60;96.30;;;;;;5091785;28;20016;-37
2021/05/08 01:47:44;;;;;;;9.77;8.75;;;5.60;96.40;;;;;;5108816;28;20084;-39
2021/05/08 01:50:12;;;;;;;9.88;7.90;;;5.60;96.50;;;;;;5098394;28;20088;-38
2021/05/08 01:52:39;;;;;;;11.63;9.07;;;5.60;96.50;;;;;;5105597;28;20039;-38
2021/05/08 01:55:24;;;;;;;11.48;10.15;;;5.60;96.50;;;;;;5099703;28;20090;-37
2021/05/08 01:57:55;;;;;;;11.73;9.13;;;5.60;96.60;;;;;;5106519;28;20054;-36
2021/05/08 02:00:28;;;;;;;11.50;8.82;;;5.60;96.60;;;;;;5098959;28;20036;-36
2021/05/08 02:02:59;;;;;;;11.88;9.68;;;5.60;96.50;;;;;;5105227;28;20433;-38
2021/05/08 02:05:27;;;;;;;13.18;10.50;;;5.60;96.50;;;;;;5100739;28;20447;-37
2021/05/08 02:07:53;;;;;;;12.55;10.00;;;5.60;96.50;;;;;;5103176;28;20114;-37
2021/05/08 02:10:19;;;;;;;11.57;10.13;;;5.60;96.60;;;;;;5101972;28;20438;-39
2021/05/08 02:12:45;;;;;;;11.57;9.30;;;5.60;96.60;;;;;;5100196;28;20123;-35
2021/05/08 02:15:15;;;;;;;11.93;9.90;;;5.60;96.60;;;;;;5104771;28;20080;-39
2021/05/08 02:17:41;;;;;;;14.60;10.32;;;5.60;96.60;;;;;;5098944;28;20385;-41
2021/05/08 02:20:10;;;;;;;13.27;10.70;;;5.60;96.60;;;;;;5105767;28;20080;-38
2021/05/08 02:22:36;;;;;;;13.27;10.63;;;5.60;96.60;;;;;;5096749;28;20339;-39
2021/05/08 02:25:07;;;;;;;12.93;10.60;;;5.70;96.60;;;;;;5105496;28;20437;-38
2021/05/08 02:27:34;;;;;;;11.98;10.68;;;5.70;96.60;;;;;;5098709;28;20512;-36
2021/05/08 02:30:00;;;;;;;11.85;9.68;;;5.70;96.60;;;;;;5087760;28;20356;-37
2021/05/08 02:32:25;;;;;;;11.80;9.38;;;5.80;96.60;;;;;;5098995;28;20028;-37
2021/05/08 02:34:51;;;;;;;13.75;10.60;;;5.80;96.50;;;;;;5107628;28;20031;-32
2021/05/08 02:37:17;;;;;;;12.88;10.52;;;5.90;96.50;;;;;;5094805;28;20035;-37
2021/05/08 02:39:43;;;;;;;12.80;10.90;;;5.90;96.60;;;;;;5107572;28;20031;-39
2021/05/08 02:42:08;;;;;;;13.32;11.38;;;6.00;96.60;;;;;;5094561;28;20082;-37
2021/05/08 02:44:34;;;;;;;11.70;10.48;;;6.00;96.60;;;;;;5107260;28;20053;-38
2021/05/08 02:46:59;;;;;;;14.05;10.93;;;6.00;96.60;;;;;;5097332;28;20082;-39
2021/05/08 02:49:25;;;;;;;14.05;10.55;;;6.00;96.60;;;;;;5103902;28;20111;-32
2021/05/08 02:51:50;;;;;;;13.60;10.55;;;6.00;96.70;;;;;;5100623;28;20054;-35
2021/05/08 02:54:16;;;;;;;13.60;10.55;;;6.10;96.70;;;;;;5101163;28;20048;-37
2021/05/08 02:56:41;;;;;;;12.95;10.10;;;6.10;96.60;;;;;;5102497;28;20042;-38
2021/05/08 02:59:07;;;;;;;12.93;9.60;;;6.20;96.60;;;;;;5098462;28;20032;-39
2021/05/08 03:01:35;;;;;;;12.50;9.90;;;6.20;96.60;;;;;;5105898;28;20008;-37
2021/05/08 03:04:01;;;;;;;13.45;10.75;;;6.30;96.50;;;;;;5106302;28;20036;-39
2021/05/08 03:06:26;;;;;;;12.75;9.93;;;6.30;96.50;;;;;;5106008;28;20016;-38
2021/05/08 03:08:52;;;;;;;12.60;9.90;;;6.30;96.50;;;;;;5095780;28;20019;-36
2021/05/08 03:11:17;;;;;;;13.75;10.55;;;6.30;96.50;;;;;;5106421;28;20023;-36
2021/05/08 03:13:43;;;;;;;12.93;10.68;;;6.30;96.50;;;;;;5094028;28;20096;-36
2021/05/08 03:16:09;;;;;;;13.25;10.38;;;6.30;96.50;;;;;;5106818;28;20696;-37
2021/05/08 03:18:34;;;;;;;11.68;9.85;;;6.30;96.40;;;;;;5094247;28;20056;-38
2021/05/08 03:21:00;;;;;;;12.38;10.23;;;6.40;96.40;;;;;;5106358;28;20661;-38
2021/05/08 03:23:25;;;;;;;11.55;10.35;;;6.40;96.40;;;;;;5095058;28;20016;-35
2021/05/08 03:25:51;;;;;;;11.98;10.13;;;6.30;96.30;;;;;;5105624;28;20230;-38
2021/05/08 03:28:16;;;;;;;12.70;10.20;;;6.30;96.30;;;;;;5097600;28;20321;-38
2021/05/08 03:30:42;;;;;;;11.88;9.85;;;6.30;96.30;;;;;;5102226;28;20388;-39
2021/05/08 03:33:08;;;;;;;13.18;10.73;;;6.20;96.30;;;;;;5100200;28;20145;-38
2021/05/08 03:35:33;;;;;;;12.63;10.40;;;6.20;96.40;;;;;;5100146;28;20023;-38
2021/05/08 03:37:58;;;;;;;11.30;9.80;;;6.10;96.40;;;;;;5102289;28;20553;-39
2021/05/08 03:40:24;;;;;;;14.07;10.52;;;6.10;96.50;;;;;;5097424;28;20035;-39
2021/05/08 03:42:49;;;;;;;12.40;10.55;;;6.20;96.50;;;;;;5104411;28;20069;-35
2021/05/08 03:45:15;;;;;;;12.55;10.57;;;6.20;96.50;;;;;;5094514;28;20028;-36
2021/05/08 03:47:41;;;;;;;12.48;10.40;;;6.20;96.40;;;;;;5104728;28;20050;-36
2021/05/08 03:50:07;;;;;;;12.88;10.35;;;6.30;96.40;;;;;;5095009;28;20411;-37
2021/05/08 03:52:33;;;;;;;13.57;10.52;;;6.30;96.30;;;;;;5106201;28;20321;-36
2021/05/08 03:55:00;;;;;;;11.63;9.23;;;6.30;96.20;;;;;;5092603;28;20124;-34
2021/05/08 03:57:25;;;;;;;13.65;10.90;;;6.30;96.20;;;;;;5105781;28;20395;-36
2021/05/08 03:59:51;;;;;;;11.80;10.55;;;6.20;96.20;;;;;;5092655;28;20475;-38
2021/05/08 04:02:19;;;;;;;14.23;11.55;;;6.20;96.20;;;;;;5106238;28;20023;-38
2021/05/08 04:04:54;;;;;;;12.68;10.80;;;6.10;96.20;;;;;;5094936;28;20019;-37
2021/05/08 04:07:20;;;;;;;16.23;11.65;;;6.10;96.30;;;;;;5105471;28;20072;-38
2021/05/08 04:09:45;;;;;;;13.93;11.63;;;6.00;96.30;;;;;;5096502;28;20464;-34
2021/05/08 04:12:11;;;;;;;13.85;11.80;;;6.00;96.40;;;;;;5102393;28;20036;-37
2021/05/08 04:14:36;;;;;;;15.40;11.73;;;5.90;96.40;;;;;;5099658;28;20135;-36
2021/05/08 04:17:02;;;;;;;14.70;12.18;;;5.90;96.50;;;;;;5099782;28;20027;-37
2021/05/08 04:19:27;;;;;;;15.93;12.98;;;5.80;96.50;;;;;;5101837;28;20015;-39
2021/05/08 04:21:53;;;;;;;14.77;11.95;;;5.80;96.70;;;;;;5097230;28;20038;-39
2021/05/08 04:24:21;;;;;;;15.38;12.88;;;5.80;96.70;;;;;;5104040;28;20032;-40
2021/05/08 04:26:47;;;;;;;15.10;12.30;;;5.70;96.70;;;;;;5094120;28;20066;-40
2021/05/08 04:29:12;;;;;;;15.35;11.93;;;5.80;96.80;;;;;;5104072;28;20039;-38
2021/05/08 04:31:38;;;;;;;14.13;12.43;;;5.80;96.80;;;;;;5096915;28;20020;-37
2021/05/08 04:34:03;;;;;;;13.40;11.90;;;5.90;96.80;;;;;;5096734;28;20032;-38
2021/05/08 04:36:29;;;;;;;14.48;11.43;;;6.00;96.70;;;;;;5100247;28;20086;-37
2021/05/08 04:38:57;;;;;;;13.95;10.32;;;6.00;96.60;;;;;;5085331;28;20024;-39
2021/05/08 04:41:22;;;;;;;14.85;9.98;;;6.10;96.60;;;;;;5097211;28;20082;-38
2021/05/08 04:43:48;;;;;;;13.63;10.27;;;6.10;96.60;;;;;;5085531;28;20482;-38
2021/05/08 04:46:14;;;;;;;12.70;10.63;;;6.10;96.60;;;;;;5096779;28;20031;-39
2021/05/08 04:48:40;;;;;;;13.93;10.15;;;6.20;96.60;;;;;;5085572;28;20096;-39
2021/05/08 04:51:05;;;;;;;12.18;10.55;;;6.30;96.60;;;;;;5093683;28;20071;-38
2021/05/08 04:53:32;;;;;;;12.23;10.48;;;6.40;96.50;;;;;;5088859;28;20067;-34
2021/05/08 04:56:01;;;;;;;14.82;10.98;;;6.50;96.40;;;;;;5091228;28;20020;-36
2021/05/08 04:58:26;;;;;;;13.32;10.98;;;6.60;96.40;;;;;;5091213;28;20032;-34
2021/05/08 05:00:52;;;;;;;14.65;11.30;;;6.70;96.30;;;;;;5088790;28;20057;-36
2021/05/08 05:03:18;;;;;;;14.60;11.18;;;6.70;96.20;;;;;;5093345;28;20433;-36
2021/05/08 05:05:43;;;;;;;14.27;11.13;;;6.80;96.20;;;;;;5086421;28;20399;-37
2021/05/08 05:08:09;;;;;;;13.48;11.18;;;6.80;96.10;;;;;;5097283;28;20088;-39
2021/05/08 05:10:34;;;;;;;13.82;11.18;;;6.80;96.10;;;;;;5090744;28;20397;-36
2021/05/08 05:13:00;;;;;;;13.18;11.13;;;6.90;96.10;;;;;;5099636;28;20032;-37
2021/05/08 05:15:26;;;;;;;11.20;9.75;;;6.90;96.10;;;;;;5090134;28;20370;-38
2021/05/08 05:17:53;;;;;;;13.10;11.45;;;6.90;96.00;;;;;;5104570;28;20023;-37
2021/05/08 05:20:19;;;;;;;11.50;10.10;;;7.00;95.90;;;;;;5088916;28;20077;-39
2021/05/08 05:22:44;;;;;;;12.10;9.80;;;7.10;95.90;;;;;;5100841;28;20028;-38
2021/05/08 05:25:10;;;;;;;11.13;9.02;;;7.10;95.80;;;;;;5089299;28;20106;-38
2021/05/08 05:27:36;;;;;;;10.52;9.25;;;7.10;95.80;;;;;;5100583;28;20442;-38
2021/05/08 05:30:02;;;;;;;10.63;9.02;;;7.10;95.90;;;;;;5089429;28;20638;-36
2021/05/08 05:32:28;;;;;;;11.32;9.30;;;7.10;95.90;;;;;;5098118;28;20478;-36
2021/05/08 05:34:56;;;;;;;11.45;9.55;;;7.20;95.80;;;;;;5090609;28;20114;-38
2021/05/08 05:37:22;;;;;;;14.77;10.07;;;7.30;95.70;;;;;;5094430;28;20016;-35
2021/05/08 05:39:47;;;;;;;13.93;10.32;;;7.40;95.60;;;;;;5094586;28;20020;-37
2021/05/08 05:42:13;;;;;;;12.73;10.25;;;7.40;95.50;;;;;;5093613;28;20012;-35
2021/05/08 05:44:38;;;;;;;12.75;10.35;;;7.50;95.40;;;;;;5097048;28;20047;-39
2021/05/08 05:47:07;;;;;;;12.63;10.40;;;7.60;95.30;;;;;;5089561;28;20103;-38
2021/05/08 05:49:32;;;;;;;11.18;9.95;;;7.70;95.30;;;;;;5098306;28;20036;-38
2021/05/08 05:52:01;;;;;;;12.00;10.25;;;7.80;95.20;;;;;;5105901;28;20030;-38
2021/05/08 05:54:26;;;;;;;12.02;9.48;;;7.90;95.00;;;;;;5100177;28;20048;-36
2021/05/08 05:56:55;;;;;;;13.75;9.27;;;8.00;94.90;;;;;;5089017;28;20031;-38
2021/05/08 05:59:21;;;;;;;11.55;9.27;;;8.00;94.80;;;;;;5099559;28;20548;-36
2021/05/08 06:01:46;;;;;;;11.93;9.55;;;8.10;94.70;;;;;;5088857;28;20027;-38
2021/05/08 06:04:12;;;;;;;11.68;9.82;;;8.30;94.60;;;;;;5101232;28;20580;-39
2021/05/08 06:06:37;;;;;;;10.95;9.82;;;8.30;94.50;;;;;;5088374;28;20036;-36
2021/05/08 06:09:03;;;;;;;11.05;9.73;;;8.40;94.40;;;;;;5100424;28;20428;-38
2021/05/08 06:11:28;;;;;;;10.25;9.07;;;8.40;94.30;;;;;;5089643;28;20020;-38
2021/05/08 06:13:54;;;;;;;11.13;8.85;;;8.50;94.30;;;;;;5097016;28;20039;-37
2021/05/08 06:16:20;;;;;;;10.30;9.05;;;8.50;94.20;;;;;;5091596;28;20024;-38
2021/05/08 06:18:45;;;;;;;11.25;9.30;;;8.60;94.20;;;;;;5095308;28;20405;-38
2021/05/08 06:21:11;;;;;;;11.02;8.48;;;8.80;94.10;;;;;;5092900;28;20495;-36
2021/05/08 06:23:36;;;;;;;10.32;9.02;;;8.90;94.00;;;;;;5092837;28;20082;-37
2021/05/08 06:26:02;;;;;;;10.52;9.00;;;9.00;93.90;;;;;;5095790;28;20031;-38
2021/05/08 06:28:27;;;;;;;10.10;8.77;;;9.00;93.80;;;;;;5089893;28;20012;-40
2021/05/08 06:30:55;;;;;;;10.23;8.68;;;9.10;93.80;;;;;;5096697;28;20405;-40
2021/05/08 06:33:22;;;;;;;11.00;9.68;;;9.10;93.60;;;;;;5105580;28;20580;-36
2021/05/08 06:35:48;;;;;;;10.65;9.05;;;9.10;93.50;;;;;;5096695;28;20062;-34
2021/05/08 06:38:14;;;;;;;11.85;9.25;;;9.20;93.50;;;;;;5106442;28;20051;-39
2021/05/08 06:40:39;;;;;;;12.50;8.55;;;9.30;93.50;;;;;;5094984;28;20012;-38
2021/05/08 06:43:05;;;;;;;10.02;8.93;;;9.30;93.40;;;;;;5107736;28;20030;-36
2021/05/08 06:45:30;;;;;;;9.88;8.35;;;9.40;93.30;;;;;;5095073;28;20639;-39
2021/05/08 06:47:59;;;;;;;10.52;8.93;;;9.50;93.30;;;;;;5107222;28;20031;-41
2021/05/08 06:50:27;;;;;;;9.35;8.20;;;9.60;93.20;;;;;;5095769;28;20047;-38
2021/05/08 06:52:54;;;;;;;11.30;8.73;;;9.70;93.10;;;;;;5088751;28;20061;-40
2021/05/08 06:55:20;;;;;;;9.30;7.78;;;9.80;92.90;;;;;;5097851;28;20031;-39
2021/05/08 06:57:47;;;;;;;9.52;8.43;;;9.90;92.70;;;;;;5105318;28;20506;-38
2021/05/08 07:00:17;;;;;;;8.90;8.00;;;9.90;92.60;;;;;;5100646;28;20066;-38
2021/05/08 07:02:42;;;;;;;13.23;8.65;;;10.00;92.40;;;;;;5100147;28;20036;-37
2021/05/08 07:05:08;;;;;;;10.85;8.65;;;10.00;92.30;;;;;;5099955;28;20071;-38
2021/05/08 07:07:34;;;;;;;9.65;8.60;;;10.00;92.20;;;;;;5099807;28;20063;-36
2021/05/08 07:09:59;;;;;;;10.52;7.93;;;10.00;92.10;;;;;;5103624;28;20493;-38
2021/05/08 07:12:25;;;;;;;9.57;7.32;;;10.10;92.10;;;;;;5097673;28;20028;-38
2021/05/08 07:14:50;;;;;;;9.43;8.02;;;10.10;92.10;;;;;;5104715;28;20618;-41
2021/05/08 07:17:19;;;;;;;9.48;7.25;;;10.20;92.00;;;;;;5094924;28;20517;-39
2021/05/08 07:19:44;;;;;;;9.35;7.13;;;10.30;91.90;;;;;;5105097;28;20050;-35
2021/05/08 07:22:10;;;;;;;8.48;7.30;;;10.30;91.80;;;;;;5103015;28;20027;-35
2021/05/08 07:24:35;;;;;;;8.27;6.80;;;10.40;91.80;;;;;;5106629;28;20077;-38
2021/05/08 07:27:01;;;;;;;8.13;6.82;;;10.50;91.80;;;;;;5093324;28;20538;-40
2021/05/08 07:29:27;;;;;;;9.73;6.85;;;10.60;91.70;;;;;;5106339;28;20039;-38
2021/05/08 07:31:52;;;;;;;7.70;6.90;;;10.70;91.50;;;;;;5101726;28;20020;-39
2021/05/08 07:34:18;;;;;;;7.30;6.55;;;10.80;91.50;;;;;;5097805;28;20031;-36
2021/05/08 07:36:44;;;;;;;7.82;6.35;;;10.90;91.60;;;;;;5095392;28;20020;-40
2021/05/08 07:39:09;;;;;;;7.50;6.55;;;11.00;91.50;;;;;;5103171;28;20039;-38
2021/05/08 07:41:35;;;;;;;8.52;6.75;;;11.10;91.30;;;;;;5098413;28;20077;-38
2021/05/08 07:44:01;;;;;;;6.95;6.15;;;11.20;91.30;;;;;;5099267;28;20058;-40
2021/05/08 07:46:26;;;;;;;8.57;6.15;;;11.30;91.30;;;;;;5101851;28;20020;-37
2021/05/08 07:48:52;;;;;;;8.90;6.95;;;11.50;91.30;;;;;;5097063;28;20066;-35
2021/05/08 07:51:17;;;;;;;8.13;6.70;;;11.60;91.00;;;;;;5103080;28;20028;-38
2021/05/08 07:53:43;;;;;;;8.10;6.40;;;11.70;90.90;;;;;;5094500;28;20048;-37
2021/05/08 07:56:08;;;;;;;6.40;5.65;;;11.70;90.60;;;;;;5103292;28;20133;-38
2021/05/08 07:58:34;;;;;;;6.93;5.50;;;11.80;90.60;;;;;;5096440;28;20103;-37
2021/05/08 08:01:00;;;;;;;7.32;5.45;;;11.80;90.40;;;;;;5085600;28;20919;-36
2021/05/08 08:03:25;;;;;;;7.40;6.15;;;11.90;90.20;;;;;;5102166;28;20035;-37
2021/05/08 08:05:51;;;;;;;6.70;5.30;;;11.90;89.70;;;;;;5106296;28;20016;-41
2021/05/08 08:08:16;;;;;;;7.15;5.57;;;12.00;89.90;;;;;;5100610;28;20055;-39
2021/05/08 08:10:42;;;;;;;6.55;5.40;;;12.00;89.60;;;;;;5085842;28;20029;-34
2021/05/08 08:13:07;;;;;;;7.32;5.78;;;12.10;89.70;;;;;;5097264;28;20044;-36
2021/05/08 08:15:33;;;;;;;7.88;5.57;;;12.10;89.60;;;;;;5088676;28;20104;-36
2021/05/08 08:17:58;;;;;;;7.00;5.53;;;12.20;89.80;;;;;;5102761;28;20035;-39
2021/05/08 08:20:24;;;;;;;5.07;4.50;;;12.30;89.50;;;;;;5100908;28;20024;-38
2021/05/08 08:22:50;;;;;;;6.78;5.45;;;12.30;89.40;;;;;;5103737;28;20027;-33
2021/05/08 08:25:18;;;;;;;6.68;5.38;;;12.30;89.10;;;;;;5105620;28;20015;-39
2021/05/08 08:27:43;;;;;;;7.72;5.07;;;12.40;89.00;;;;;;5103657;28;20050;-39
2021/05/08 08:30:12;;;;;;;6.50;5.38;;;12.40;88.70;;;;;;5098994;28;20024;-38
2021/05/08 08:32:39;;;;;;;6.35;5.05;;;12.40;88.40;;;;;;5091695;28;20024;-38
2021/05/08 08:35:05;;;;;;;6.95;5.85;;;12.50;88.20;;;;;;5104976;28;20675;-37
2021/05/08 08:37:30;;;;;;;8.88;6.07;;;12.50;87.60;;;;;;5104831;28;20764;-39
2021/05/08 08:39:56;;;;;;;8.40;6.15;;;12.60;88.00;;;;;;5104421;28;20012;-39
2021/05/08 08:42:22;;;;;;;7.25;5.80;;;12.70;87.60;;;;;;5105165;28;20023;-43
2021/05/08 08:44:47;;;;;;;7.30;5.57;;;12.70;87.70;;;;;;5100997;28;20083;-37
2021/05/08 08:47:29;;;;;;;7.13;6.10;;;12.80;87.80;;;;;;5105492;28;20028;-40
2021/05/08 08:49:59;;;;;;;5.65;5.00;;;12.80;87.50;;;;;;5099658;28;20045;-37
2021/05/08 08:52:25;;;;;;;6.60;5.38;;;12.90;87.70;;;;;;5106029;28;20396;-39
2021/05/08 08:54:52;;;;;;;7.20;5.15;;;13.00;86.60;;;;;;5098840;28;20086;-39
2021/05/08 08:57:23;;;;;;;6.15;5.10;;;13.10;86.50;;;;;;5085354;28;20032;-38
2021/05/08 08:59:51;;;;;;;8.30;5.70;;;13.20;86.30;;;;;;5097794;28;20108;-40
2021/05/08 09:02:16;;;;;;;6.07;5.15;;;13.30;85.40;;;;;;5085278;28;20038;-38
2021/05/08 09:04:42;;;;;;;8.52;5.68;;;13.30;83.70;;;;;;5088485;28;20024;-38
2021/05/08 09:07:09;;;;;;;6.47;4.93;;;13.30;83.60;;;;;;5103176;28;20019;-38
2021/05/08 09:09:35;;;;;;;7.88;5.28;;;13.40;83.90;;;;;;5097967;28;20027;-38
2021/05/08 09:12:01;;;;;;;9.93;5.88;;;13.50;82.40;;;;;;5097226;28;20104;-35
2021/05/08 09:14:29;;;;;;;7.82;5.30;;;13.60;81.70;;;;;;5099975;28;20012;-38
2021/05/08 09:17:09;;;;;;;8.48;6.00;;;13.70;82.50;;;;;;5101403;28;20027;-38
2021/05/08 09:19:39;;;;;;;9.15;5.10;;;13.80;81.00;;;;;;5100019;28;20074;-36
2021/05/08 09:22:25;;;;;;;7.43;5.20;;;14.00;81.70;;;;;;5100761;28;20105;-38
2021/05/08 09:25:03;;;;;;;7.93;4.68;;;14.10;80.70;;;;;;5089603;28;20031;-38
2021/05/08 09:27:34;;;;;;;8.98;6.05;;;14.20;80.90;;;;;;5096099;28;20019;-37
2021/05/08 09:30:14;;;;;;;6.95;4.97;;;14.30;80.60;;;;;;5099287;28;20046;-37
2021/05/08 09:32:50;;;;;;;9.25;7.00;;;14.40;80.70;;;;;;5103953;28;20766;-35
2021/05/08 09:35:36;;;;;;;8.77;5.80;;;14.50;80.20;;;;;;5092769;28;20048;-38
2021/05/08 09:38:09;;;;;;;8.75;5.63;;;14.60;79.70;;;;;;5099291;28;20431;-37
2021/05/08 09:40:36;;;;;;;8.15;5.57;;;14.60;78.80;;;;;;5081303;28;20126;-35
2021/05/08 09:43:15;;;;;;;8.85;5.50;;;14.60;77.10;;;;;;5098688;28;20031;-38
2021/05/08 09:45:42;;;;;;;6.75;4.60;;;14.60;77.30;;;;;;5097354;28;20209;-38
2021/05/08 09:48:20;;;;;;;6.22;4.93;;;14.60;77.40;;;;;;5098449;28;20478;-37
2021/05/08 09:50:49;;;;;;;8.23;4.70;;;14.60;77.60;;;;;;5097752;28;20029;-36
2021/05/08 09:53:29;;;;;;;5.80;4.43;;;14.60;77.70;;;;;;5098987;28;20059;-38
2021/05/08 09:55:54;;;;;;;7.30;5.10;;;14.70;77.40;;;;;;5100622;28;20016;-37
2021/05/08 09:58:22;;;;;;;6.30;4.95;;;14.70;76.90;;;;;;5099394;28;20497;-38
2021/05/08 10:00:47;;;;;;;6.10;4.30;;;14.90;76.70;;;;;;5105294;28;20016;-38
2021/05/08 10:03:15;;;;;;;5.88;3.97;;;15.00;76.90;;;;;;5099676;28;20027;-39
2021/05/08 10:05:49;;;;;;;6.38;4.47;;;15.10;76.10;;;;;;5106477;28;20428;-40
2021/05/08 10:08:15;;;;;;;8.27;5.13;;;15.20;74.60;;;;;;5098276;28;20343;-37
2021/05/08 10:10:41;;;;;;;5.70;4.70;;;15.20;74.40;;;;;;5106014;28;20020;-37
2021/05/08 10:13:10;;;;;;;5.90;4.43;;;15.20;74.60;;;;;;5098445;28;20802;-38
2021/05/08 10:15:37;;;;;;;6.47;4.38;;;15.20;75.20;;;;;;5089615;28;20016;-37
2021/05/08 10:18:07;;;;;;;7.05;4.07;;;15.20;74.00;;;;;;5103989;28;20027;-39
2021/05/08 10:20:34;;;;;;;5.45;3.85;;;15.20;74.70;;;;;;5108219;28;20489;-38
2021/05/08 10:23:06;;;;;;;4.18;3.47;;;15.30;74.50;;;;;;5100365;28;20051;-38
2021/05/08 10:25:32;;;;;;;5.28;3.58;;;15.40;75.10;;;;;;5086225;28;20119;-37
2021/05/08 10:27:58;;;;;;;4.50;3.40;;;15.50;75.40;;;;;;5100008;28;20023;-37
2021/05/08 10:30:32;;;;;;;3.30;2.30;;;15.40;74.10;;;;;;5087649;28;20050;-40
2021/05/08 10:32:58;;;;;;;2.88;2.20;;;15.30;75.10;;;;;;5099532;28;20490;-40
2021/05/08 10:35:37;;;;;;;4.85;2.58;;;15.30;74.80;;;;;;5106759;28;20141;-40
2021/05/08 10:38:21;;;;;;;2.63;2.30;;;15.20;74.50;;;;;;5094841;28;20026;-34
2021/05/08 10:41:10;;;;;;;2.55;2.33;;;15.30;74.80;;;;;;5086972;28;20052;-36
2021/05/08 10:43:51;;;;;;;4.28;2.95;;;15.40;75.10;;;;;;5094124;28;20032;-37
2021/05/08 10:46:19;;;;;;;5.93;2.55;;;15.40;74.40;;;;;;5107218;28;20034;-39
2021/05/08 10:49:07;;;;;;;5.20;2.70;;;15.40;75.00;;;;;;5094695;28;20038;-38
2021/05/08 10:52:02;;;;;;;3.58;2.60;;;15.40;75.40;;;;;;5107859;28;20031;-38
2021/05/08 10:54:43;;;;;;;3.13;2.33;;;15.40;75.00;;;;;;5095492;28;20094;-38
2021/05/08 10:57:15;;;;;;;4.57;2.50;;;15.40;75.40;;;;;;5105682;28;20157;-37
2021/05/08 10:59:59;;;;;;;3.97;3.13;;;15.50;75.90;;;;;;5095602;28;20436;-39
2021/05/08 11:02:48;;;;;;;4.03;2.90;;;15.30;75.00;;;;;;5105813;28;20105;-36
2021/05/08 11:05:35;;;;;;;4.72;3.72;;;15.20;75.70;;;;;;5086656;28;20047;-41
2021/05/08 11:08:27;;;;;;;5.57;3.63;;;15.10;75.80;;;;;;5102304;28;20055;-37
2021/05/08 11:10:54;;;;;;;4.07;3.03;;;14.90;77.40;;;;;;5091369;28;20055;-39
2021/05/08 11:13:26;;;;;;;6.18;3.60;;;14.80;78.00;;;;;;5088563;28;20063;-38
2021/05/08 11:15:52;;;;;;;3.85;3.45;;;14.60;79.00;;;;;;5090966;28;20024;-34
2021/05/08 11:18:30;;;;;;;4.78;3.85;;;14.50;79.70;;;;;;5086185;28;20043;-38
2021/05/08 11:20:59;;;;;;;5.35;3.47;;;14.50;81.20;;;;;;5092556;28;20463;-39
2021/05/08 11:23:25;;;;;;;6.93;3.60;;;14.50;81.50;;;;;;5085919;28;20043;-38
2021/05/08 11:25:51;;;;;;;4.93;3.30;;;14.60;81.80;;;;;;5094839;28;20653;-38
2021/05/08 11:28:17;;;;;;;3.67;3.08;;;14.60;81.80;;;;;;5087508;28;20019;-36
2021/05/08 11:31:01;;;;;;;3.33;2.83;;;14.60;81.80;;;;;;5096146;28;20054;-39
2021/05/08 11:33:30;;;;;;;3.50;2.90;;;14.60;82.20;;;;;;5088916;28;20028;-39
2021/05/08 11:36:03;;;;;;;4.20;3.15;;;14.50;82.50;;;;;;5083547;28;20093;-39
2021/05/08 11:38:29;;;;;;;4.45;2.92;;;14.50;82.70;;;;;;5086784;28;20028;-38
2021/05/08 11:40:55;;;;;;;3.08;2.72;;;14.50;83.00;;;;;;5096828;28;20475;-36
2021/05/08 11:43:27;;;;;;;3.20;2.50;;;14.40;83.90;;;;;;5084876;28;20023;-39
2021/05/08 11:45:57;;;;;;;6.82;2.75;;;14.30;85.50;;;;;;5100340;28;20020;-39
2021/05/08 11:48:22;;;;;;;4.50;2.97;;;14.30;86.10;;;;;;5085849;28;20322;-39
2021/05/08 11:50:55;;;;;;;5.50;3.05;;;14.20;86.40;;;;;;5097582;28;20527;-39
2021/05/08 11:53:23;;;;;;;5.00;2.92;;;14.10;88.70;;;;;;5085094;28;20113;-39
2021/05/08 11:55:49;;;;;;;3.30;2.53;;;13.90;89.00;;;;;;5097853;28;20027;-39
2021/05/08 11:58:26;;;;;;;3.40;2.92;;;13.80;91.10;;;;;;5084656;28;20027;-37
2021/05/08 12:00:52;;;;;;;3.08;2.83;;;13.60;91.00;;;;;;5097258;28;20089;-38
2021/05/08 12:03:19;;;;;;;4.35;2.90;;;13.50;91.20;;;;;;5085066;28;20105;-38
2021/05/08 12:05:46;;;;;;;3.83;2.97;;;13.50;91.30;;;;;;5088965;28;20019;-40
2021/05/08 12:08:23;;;;;;;3.50;3.20;;;13.40;91.50;;;;;;5103006;28;20055;-39
2021/05/08 12:10:52;;;;;;;6.47;3.30;;;13.30;91.90;;;;;;5095738;28;20066;-39
2021/05/08 12:13:18;;;;;;;3.40;3.10;;;13.20;92.20;;;;;;5102086;28;20032;-39
2021/05/08 12:15:52;;;;;;;6.30;3.97;;;13.10;93.00;;;;;;5097750;28;20027;-39
2021/05/08 12:18:21;;;;;;;4.32;3.53;;;13.00;93.80;;;;;;5100314;28;20049;-40
2021/05/08 12:20:48;;;;;;;3.92;3.53;;;12.90;93.60;;;;;;5082853;28;20020;-38
2021/05/08 12:23:22;;;;;;;4.55;3.90;;;12.80;93.80;;;;;;5098896;28;20571;-39
2021/05/08 12:26:09;;;;;;;3.90;3.55;;;12.70;94.00;;;;;;5100022;28;20112;-39
2021/05/08 12:28:43;;;;;;;7.63;4.10;;;12.60;94.40;;;;;;5100872;28;20028;-39
2021/05/08 12:31:21;;;;;;;4.72;3.85;;;12.50;95.00;;;;;;5098584;28;20378;-39
2021/05/08 12:33:47;;;;;;;7.07;4.13;;;12.50;95.20;;;;;;5096175;28;20063;-38
2021/05/08 12:36:15;;;;;;;4.38;3.40;;;12.40;95.10;;;;;;5090381;28;20030;-37
2021/05/08 12:38:41;;;;;;;4.13;3.45;;;12.40;95.20;;;;;;5091859;28;20438;-40
2021/05/08 12:41:28;;;;;;;3.97;3.33;;;12.50;95.50;;;;;;5087508;28;20340;-37
2021/05/08 12:44:07;;;;;;;4.15;3.65;;;12.50;95.90;;;;;;5091165;28;20024;-37
2021/05/08 12:46:56;;;;;;;6.63;4.07;;;12.40;95.50;;;;;;5089694;28;20035;-39
2021/05/08 12:49:22;;;;;;;3.70;3.30;;;12.50;95.40;;;;;;5088862;28;20043;-35